createdAt,value
2023-01-20T00:01:33.647Z,15.18
2023-01-20T00:04:01.318Z,13.43
2023-01-20T00:06:29.045Z,10.98
2023-01-20T00:08:59.136Z,11.57
2023-01-20T00:11:27.780Z,13.10
2023-01-20T00:13:56.834Z,10.65
2023-01-20T00:16:25.004Z,10.50
2023-01-20T00:18:52.800Z,8.57
2023-01-20T00:21:20.973Z,16.85
2023-01-20T00:23:48.841Z,11.07
2023-01-20T00:26:19.604Z,12.90
2023-01-20T00:28:48.088Z,9.93
2023-01-20T00:31:22.523Z,11.18
2023-01-20T00:33:51.596Z,11.38
2023-01-20T00:36:20.939Z,9.43
2023-01-20T00:38:48.766Z,11.43
2023-01-20T00:41:17.027Z,12.48
2023-01-20T00:43:44.729Z,14.23
2023-01-20T00:46:12.708Z,14.55
2023-01-20T00:51:08.574Z,13.95
2023-01-20T00:53:36.767Z,14.23
2023-01-20T00:56:05.227Z,9.73
2023-01-20T00:58:32.797Z,16.40
2023-01-20T01:01:00.688Z,9.57
2023-01-20T01:06:13.011Z,10.50
2023-01-20T01:08:41.389Z,8.02
2023-01-20T01:11:09.765Z,8.82
2023-01-20T01:13:38.511Z,11.95
2023-01-20T01:16:14.257Z,10.45
2023-01-20T01:18:42.356Z,8.95
2023-01-20T01:23:38.706Z,12.18
2023-01-20T01:26:06.628Z,10.38
2023-01-20T01:28:34.103Z,8.52
2023-01-20T01:31:03.373Z,11.88
2023-01-20T01:33:31.248Z,7.38
2023-01-20T01:36:01.052Z,8.15
2023-01-20T01:38:29.477Z,14.93
2023-01-20T01:40:57.335Z,9.50
2023-01-20T01:43:28.363Z,12.00
2023-01-20T01:45:55.943Z,9.10
2023-01-20T01:48:45.444Z,10.27
2023-01-20T01:51:19.287Z,10.73
2023-01-20T01:54:02.862Z,9.43
2023-01-20T01:56:31.369Z,7.55
2023-01-20T01:59:02.215Z,10.10
2023-01-20T02:01:35.146Z,8.27
2023-01-20T02:04:11.832Z,11.68
2023-01-20T02:06:42.871Z,10.27
2023-01-20T02:09:10.666Z,14.73
2023-01-20T02:11:48.438Z,6.85
2023-01-20T02:14:23.081Z,7.03
2023-01-20T02:17:15.500Z,6.65
2023-01-20T02:20:02.722Z,10.88
2023-01-20T02:22:42.665Z,9.88
2023-01-20T02:25:28.595Z,8.30
2023-01-20T02:28:17.645Z,12.07
2023-01-20T02:31:09.696Z,9.20
2023-01-20T02:33:37.114Z,8.73
2023-01-20T02:36:13.175Z,13.10
2023-01-20T02:38:46.658Z,7.90
2023-01-20T02:41:42.104Z,7.43
2023-01-20T02:44:19.333Z,7.63
2023-01-20T02:46:55.588Z,11.13
2023-01-20T02:49:41.129Z,9.40
2023-01-20T02:52:34.821Z,7.53
2023-01-20T02:55:10.112Z,10.50
2023-01-20T02:57:46.479Z,6.82
2023-01-20T03:00:22.812Z,8.02
2023-01-20T03:02:53.592Z,6.28
2023-01-20T03:05:33.830Z,8.50
2023-01-20T03:08:04.920Z,8.23
2023-01-20T03:10:35.447Z,7.65
2023-01-20T03:13:12.331Z,10.77
2023-01-20T03:15:56.128Z,12.40
2023-01-20T03:18:25.125Z,7.65
2023-01-20T03:20:52.654Z,5.65
2023-01-20T03:23:20.103Z,5.15
2023-01-20T03:25:49.789Z,5.47
2023-01-20T03:28:17.194Z,10.05
2023-01-20T03:30:44.760Z,7.88
2023-01-20T03:33:14.586Z,11.20
2023-01-20T03:35:42.789Z,7.25
2023-01-20T03:38:10.803Z,5.47
2023-01-20T03:43:17.361Z,9.13
2023-01-20T03:45:55.372Z,4.20
2023-01-20T03:48:40.225Z,8.32
2023-01-20T03:51:19.121Z,9.07
2023-01-20T03:53:55.267Z,9.43
2023-01-20T03:56:25.777Z,7.18
2023-01-20T03:58:55.216Z,6.82
2023-01-20T04:01:32.361Z,11.52
2023-01-20T04:04:03.020Z,9.98
2023-01-20T04:06:31.616Z,6.60
2023-01-20T04:09:04.302Z,7.00
2023-01-20T04:11:31.921Z,7.90
2023-01-20T04:13:59.529Z,6.05
2023-01-20T04:16:27.229Z,7.15
2023-01-20T04:18:55.356Z,7.85
2023-01-20T04:24:19.106Z,8.82
2023-01-20T04:26:46.568Z,8.30
2023-01-20T04:29:13.992Z,5.25
2023-01-20T04:31:41.520Z,5.70
2023-01-20T04:34:15.507Z,7.38
2023-01-20T04:36:43.550Z,4.53
2023-01-20T04:39:11.185Z,9.27
2023-01-20T04:41:38.640Z,10.02
2023-01-20T04:44:06.446Z,10.80
2023-01-20T04:46:35.990Z,12.00
2023-01-20T04:49:04.328Z,6.35
2023-01-20T04:51:34.838Z,6.88
2023-01-20T04:54:02.304Z,10.57
2023-01-20T04:56:29.766Z,7.10
2023-01-20T04:58:57.297Z,3.45
2023-01-20T05:01:25.008Z,7.30
2023-01-20T05:03:52.466Z,11.63
2023-01-20T05:06:19.975Z,7.30
2023-01-20T05:08:47.416Z,9.70
2023-01-20T05:11:14.832Z,11.43
2023-01-20T05:13:42.250Z,4.35
2023-01-20T05:16:10.666Z,12.32
2023-01-20T05:18:38.207Z,13.93
2023-01-20T05:21:08.626Z,8.32
2023-01-20T05:23:36.216Z,7.40
2023-01-20T05:26:03.751Z,6.53
2023-01-20T05:28:31.303Z,11.52
2023-01-20T05:30:58.859Z,5.63
2023-01-20T05:33:26.273Z,7.60
2023-01-20T05:35:55.896Z,4.03
2023-01-20T05:38:23.531Z,6.97
2023-01-20T05:40:50.948Z,9.98
2023-01-20T05:43:18.355Z,8.43
2023-01-20T05:45:46.791Z,8.45
2023-01-20T05:48:14.561Z,13.57
2023-01-20T05:50:43.141Z,7.63
2023-01-20T05:53:10.620Z,7.00
2023-01-20T05:55:38.120Z,11.85
2023-01-20T05:58:06.015Z,11.93
2023-01-20T06:00:33.979Z,6.07
2023-01-20T06:07:57.336Z,11.35
2023-01-20T06:10:27.847Z,10.10
2023-01-20T06:12:56.028Z,8.10
2023-01-20T06:15:24.447Z,17.30
2023-01-20T06:17:54.588Z,8.95
2023-01-20T06:20:22.259Z,8.98
2023-01-20T06:22:49.956Z,10.48
2023-01-20T06:25:17.719Z,8.43
2023-01-20T06:27:45.271Z,9.50
2023-01-20T06:30:12.849Z,17.63
2023-01-20T06:32:40.285Z,11.65
2023-01-20T06:35:09.934Z,11.05
2023-01-20T06:37:38.666Z,8.70
2023-01-20T06:40:06.444Z,13.00
2023-01-20T06:42:33.876Z,6.85
2023-01-20T06:45:01.310Z,9.27
2023-01-20T06:47:28.809Z,14.50
2023-01-20T06:49:56.254Z,8.68
2023-01-20T06:52:23.808Z,11.38
2023-01-20T06:54:51.558Z,8.50
2023-01-20T06:57:19.586Z,9.05
2023-01-20T07:02:14.813Z,10.95
2023-01-20T07:04:42.622Z,8.93
2023-01-20T07:07:13.025Z,8.32
2023-01-20T07:09:40.585Z,8.30
2023-01-20T07:12:07.972Z,9.35
2023-01-20T07:14:35.420Z,11.98
2023-01-20T07:17:02.962Z,15.80
2023-01-20T07:19:30.386Z,9.45
2023-01-20T07:21:57.738Z,16.38
2023-01-20T07:24:25.172Z,9.40
2023-01-20T07:26:53.972Z,7.22
2023-01-20T07:29:21.574Z,7.80
2023-01-20T07:31:49.042Z,8.75
2023-01-20T07:34:16.460Z,13.45
2023-01-20T07:36:43.938Z,12.77
2023-01-20T07:39:13.013Z,13.10
2023-01-20T07:41:40.688Z,13.63
2023-01-20T07:44:08.904Z,18.45
2023-01-20T07:46:36.470Z,15.40
2023-01-20T07:49:03.895Z,8.63
2023-01-20T07:51:31.343Z,8.95
2023-01-20T07:53:58.858Z,14.15
2023-01-20T07:56:28.090Z,12.38
2023-01-20T07:58:55.649Z,11.50
2023-01-20T08:01:27.704Z,12.60
2023-01-20T08:03:55.781Z,8.57
2023-01-20T08:06:29.966Z,11.07
2023-01-20T08:09:06.089Z,17.40
2023-01-20T08:11:49.383Z,9.65
2023-01-20T08:14:18.996Z,16.15
2023-01-20T08:16:50.731Z,12.35
2023-01-20T08:19:19.462Z,13.43
2023-01-20T08:21:49.777Z,13.25
2023-01-20T08:24:27.425Z,10.07
2023-01-20T08:26:59.630Z,12.55
2023-01-20T08:29:31.305Z,10.55
2023-01-20T08:32:00.551Z,9.52
2023-01-20T08:34:29.105Z,11.30
2023-01-20T08:36:57.510Z,14.50
2023-01-20T08:39:25.032Z,12.85
2023-01-20T08:41:52.668Z,11.18
2023-01-20T08:44:21.283Z,10.05
2023-01-20T08:46:52.609Z,14.27
2023-01-20T08:49:21.811Z,15.40
2023-01-20T08:51:49.581Z,8.73
2023-01-20T08:54:17.336Z,10.60
2023-01-20T08:56:44.953Z,11.75
2023-01-20T08:59:12.493Z,8.07
2023-01-20T09:01:40.095Z,13.05
2023-01-20T09:04:07.931Z,14.48
2023-01-20T09:06:41.033Z,11.35
2023-01-20T09:09:08.817Z,16.70
2023-01-20T09:11:36.622Z,10.70
2023-01-20T09:14:04.184Z,18.48
2023-01-20T09:16:31.891Z,13.50
2023-01-20T09:18:59.319Z,9.50
2023-01-20T09:21:26.830Z,15.85
2023-01-20T09:23:57.110Z,14.95
2023-01-20T09:26:35.204Z,11.88
2023-01-20T09:29:09.589Z,15.13
2023-01-20T09:31:45.293Z,11.63
2023-01-20T09:34:19.170Z,14.43
2023-01-20T09:36:51.463Z,17.30
2023-01-20T09:39:37.963Z,14.02
2023-01-20T09:42:51.400Z,8.25
2023-01-20T09:45:32.489Z,19.73
2023-01-20T09:48:42.085Z,15.45
2023-01-20T09:51:36.507Z,20.33
2023-01-20T09:54:13.411Z,15.98
2023-01-20T09:56:46.656Z,9.93
2023-01-20T09:59:27.292Z,17.05
2023-01-20T10:02:00.911Z,12.32
2023-01-20T10:04:45.752Z,12.68
2023-01-20T10:07:21.756Z,12.52
2023-01-20T10:10:06.872Z,11.80
2023-01-20T10:12:44.118Z,10.00
2023-01-20T10:15:23.435Z,11.80
2023-01-20T10:18:28.932Z,11.55
2023-01-20T10:21:07.162Z,11.05
2023-01-20T10:24:11.364Z,13.35
2023-01-20T10:26:57.631Z,11.23
2023-01-20T10:29:34.207Z,10.63
2023-01-20T10:32:04.122Z,13.38
2023-01-20T10:34:46.671Z,10.93
2023-01-20T10:37:17.511Z,17.30
2023-01-20T10:40:17.506Z,15.75
2023-01-20T10:42:50.993Z,14.55
2023-01-20T10:45:54.921Z,16.52
2023-01-20T10:48:56.972Z,14.77
2023-01-20T10:51:46.187Z,12.65
2023-01-20T10:54:35.887Z,16.52
2023-01-20T10:57:06.304Z,13.52
2023-01-20T10:59:44.766Z,15.70
2023-01-20T11:02:35.056Z,14.98
2023-01-20T11:05:16.793Z,15.35
2023-01-20T11:07:46.196Z,11.95
2023-01-20T11:10:19.529Z,20.38
2023-01-20T11:12:51.313Z,20.58
2023-01-20T11:15:33.421Z,16.40
2023-01-20T11:18:15.933Z,12.38
2023-01-20T11:20:50.365Z,14.02
2023-01-20T11:23:49.822Z,19.63
2023-01-20T11:26:25.050Z,17.17
2023-01-20T11:28:59.428Z,15.73
2023-01-20T11:31:49.673Z,21.63
2023-01-20T11:34:29.383Z,14.05
2023-01-20T11:37:05.676Z,15.15
2023-01-20T11:39:51.545Z,11.18
2023-01-20T11:42:21.656Z,15.07
2023-01-20T11:44:53.410Z,10.68
2023-01-20T11:47:28.156Z,19.15
2023-01-20T11:50:04.781Z,15.65
2023-01-20T11:52:35.110Z,18.73
2023-01-20T11:55:09.803Z,19.05
2023-01-20T11:57:46.150Z,13.38
2023-01-20T12:00:19.721Z,10.43
2023-01-20T12:03:12.917Z,22.63
2023-01-20T12:05:55.172Z,16.08
2023-01-20T12:08:37.697Z,16.02
2023-01-20T12:11:08.081Z,10.95
2023-01-20T12:14:03.006Z,13.63
2023-01-20T12:16:33.148Z,8.50
2023-01-20T12:19:10.566Z,14.32
2023-01-20T12:21:45.929Z,13.32
2023-01-20T12:24:58.332Z,18.60
2023-01-20T12:27:28.154Z,12.48
2023-01-20T12:30:00.296Z,13.38
2023-01-20T12:32:29.201Z,11.35
2023-01-20T12:34:57.727Z,11.98
2023-01-20T12:37:31.494Z,12.00
2023-01-20T12:40:17.889Z,12.15
2023-01-20T12:42:57.825Z,12.55
2023-01-20T12:45:34.377Z,14.75
2023-01-20T12:48:24.354Z,12.75
2023-01-20T12:51:17.816Z,9.10
2023-01-20T12:54:01.423Z,9.77
2023-01-20T12:56:41.665Z,8.20
2023-01-20T12:59:31.685Z,10.77
2023-01-20T13:02:16.392Z,11.23
2023-01-20T13:04:49.855Z,10.80
2023-01-20T13:08:08.467Z,9.43
2023-01-20T13:10:59.416Z,10.80
2023-01-20T13:13:56.933Z,9.23
2023-01-20T13:16:52.982Z,13.07
2023-01-20T13:19:36.942Z,11.77
2023-01-20T13:22:22.106Z,7.80
2023-01-20T13:24:55.496Z,14.05
2023-01-20T13:27:26.377Z,11.90
2023-01-20T13:29:59.201Z,11.93
2023-01-20T13:32:27.892Z,9.68
2023-01-20T13:34:56.752Z,7.63
2023-01-20T13:37:34.132Z,12.82
2023-01-20T13:40:02.114Z,7.25
2023-01-20T13:42:51.534Z,10.77
2023-01-20T13:45:24.636Z,7.95
2023-01-20T13:47:58.299Z,8.05
2023-01-20T13:50:32.118Z,10.63
2023-01-20T13:53:11.696Z,12.48
2023-01-20T13:55:44.048Z,14.27
2023-01-20T13:58:24.498Z,11.93
2023-01-20T14:00:59.540Z,14.05
2023-01-20T14:03:32.851Z,11.85
2023-01-20T14:06:11.263Z,14.38
2023-01-20T14:08:44.597Z,15.88
2023-01-20T14:11:17.493Z,13.20
2023-01-20T14:13:58.870Z,10.27
2023-01-20T14:16:41.649Z,10.48
2023-01-20T14:19:24.960Z,12.05
2023-01-20T14:21:55.406Z,13.38
2023-01-20T14:24:44.285Z,10.20
2023-01-20T14:27:24.221Z,10.50
2023-01-20T14:29:54.695Z,9.82
2023-01-20T14:32:32.129Z,13.68
2023-01-20T14:35:01.297Z,10.73
2023-01-20T14:37:35.180Z,13.05
2023-01-20T14:40:28.685Z,9.70
2023-01-20T14:42:59.103Z,15.80
2023-01-20T14:45:32.787Z,12.65
2023-01-20T14:48:02.733Z,12.82
2023-01-20T14:50:30.678Z,11.50
2023-01-20T14:52:58.470Z,13.95
2023-01-20T14:55:37.067Z,9.77
2023-01-20T14:58:09.348Z,15.60
2023-01-20T15:00:43.563Z,17.77
2023-01-20T15:03:15.870Z,10.82
2023-01-20T15:06:00.423Z,12.05
2023-01-20T15:08:57.021Z,11.07
2023-01-20T15:11:32.839Z,19.05
2023-01-20T15:16:46.665Z,13.50
2023-01-20T15:19:17.540Z,12.32
2023-01-20T15:21:50.686Z,10.70
2023-01-20T15:24:30.593Z,19.83
2023-01-20T15:27:00.661Z,13.70
2023-01-20T15:29:30.047Z,18.60
2023-01-20T15:32:00.648Z,14.00
2023-01-20T15:34:28.734Z,12.10
2023-01-20T15:36:56.309Z,14.95
2023-01-20T15:39:28.936Z,11.73
2023-01-20T15:41:57.218Z,14.10
2023-01-20T15:44:26.085Z,17.58
2023-01-20T15:46:57.107Z,12.48
2023-01-20T15:49:25.538Z,13.35
2023-01-20T15:51:53.175Z,13.77
2023-01-20T15:54:20.630Z,18.58
2023-01-20T15:56:48.163Z,12.38
2023-01-20T15:59:22.583Z,14.65
2023-01-20T16:01:50.921Z,17.50
2023-01-20T16:04:20.485Z,8.73
2023-01-20T16:06:50.290Z,15.93
2023-01-20T16:09:24.738Z,11.90
2023-01-20T16:11:53.166Z,11.90
2023-01-20T16:14:20.643Z,11.30
2023-01-20T16:16:48.059Z,11.68
2023-01-20T16:19:15.881Z,15.57
2023-01-20T16:21:45.468Z,12.85
2023-01-20T16:24:13.274Z,15.20
2023-01-20T16:26:44.647Z,14.57
2023-01-20T16:29:12.503Z,17.58
2023-01-20T16:31:39.949Z,11.90
2023-01-20T16:34:08.233Z,8.40
2023-01-20T16:36:36.104Z,21.17
2023-01-20T16:39:03.644Z,15.50
2023-01-20T16:41:31.106Z,15.52
2023-01-20T16:43:59.040Z,13.85
2023-01-20T16:46:31.486Z,15.38
2023-01-20T16:49:01.689Z,16.75
2023-01-20T16:51:30.941Z,18.00
2023-01-20T16:53:59.211Z,18.85
2023-01-20T16:56:29.104Z,18.77
2023-01-20T16:58:59.128Z,16.52
2023-01-20T17:01:27.627Z,18.85
2023-01-20T17:03:58.527Z,12.35
2023-01-20T17:06:28.822Z,18.60
2023-01-20T17:08:58.194Z,17.13
2023-01-20T17:11:34.040Z,14.82
2023-01-20T17:14:06.248Z,13.80
2023-01-20T17:16:33.971Z,16.30
2023-01-20T17:19:02.150Z,19.33
2023-01-20T17:24:04.931Z,12.40
2023-01-20T17:26:33.086Z,14.23
2023-01-20T17:31:33.070Z,12.38
2023-01-20T17:34:00.738Z,10.93
2023-01-20T17:36:29.605Z,14.30
2023-01-20T17:38:58.167Z,15.20
2023-01-20T17:41:25.596Z,16.88
2023-01-20T17:43:53.129Z,18.95
2023-01-20T17:46:23.163Z,14.38
2023-01-20T17:48:51.398Z,13.70
2023-01-20T17:51:21.378Z,14.05
2023-01-20T17:53:49.475Z,10.65
2023-01-20T17:58:47.007Z,16.17
2023-01-20T18:01:23.046Z,11.18
2023-01-20T18:03:52.458Z,12.55
2023-01-20T18:06:22.054Z,16.10
2023-01-20T18:08:58.270Z,10.43
2023-01-20T18:11:27.637Z,15.23
2023-01-20T18:13:57.144Z,13.15
2023-01-20T18:16:28.352Z,17.88
2023-01-20T18:18:58.771Z,19.67
2023-01-20T18:21:34.733Z,14.00
2023-01-20T18:24:03.881Z,20.17
2023-01-20T18:26:33.552Z,16.15
2023-01-20T18:29:03.051Z,14.38
2023-01-20T18:31:32.190Z,17.90
2023-01-20T18:34:02.412Z,18.98
2023-01-20T18:36:39.432Z,12.48
2023-01-20T18:39:12.287Z,21.30
2023-01-20T18:41:40.103Z,11.52
2023-01-20T18:44:07.795Z,11.68
2023-01-20T18:46:36.908Z,15.38
2023-01-20T18:49:05.307Z,13.93
2023-01-20T18:51:33.769Z,13.38
2023-01-20T18:54:07.656Z,14.50
2023-01-20T18:56:35.892Z,14.15
2023-01-20T18:59:05.557Z,13.77
2023-01-20T19:01:39.771Z,14.43
2023-01-20T19:04:09.608Z,12.10
2023-01-20T19:06:40.209Z,18.00
2023-01-20T19:09:08.307Z,14.85
2023-01-20T19:14:07.881Z,11.55
2023-01-20T19:16:42.135Z,14.68
2023-01-20T19:19:10.744Z,15.73
2023-01-20T19:21:38.285Z,13.60
2023-01-20T19:24:07.849Z,21.33
2023-01-20T19:26:37.434Z,24.52
2023-01-20T19:29:07.964Z,17.63
2023-01-20T19:31:37.901Z,12.70
2023-01-20T19:34:09.416Z,18.20
2023-01-20T19:36:37.174Z,14.30
2023-01-20T19:39:05.423Z,16.52
2023-01-20T19:41:34.290Z,15.43
2023-01-20T19:44:04.467Z,20.17
2023-01-20T19:46:34.693Z,24.63
2023-01-20T19:49:02.810Z,14.18
2023-01-20T19:51:31.366Z,19.20
2023-01-20T19:54:00.200Z,15.30
2023-01-20T19:56:30.415Z,15.88
2023-01-20T19:59:00.676Z,13.02
2023-01-20T20:01:34.067Z,8.65
2023-01-20T20:04:07.287Z,12.77
2023-01-20T20:06:43.913Z,14.68
2023-01-20T20:09:18.346Z,16.45
2023-01-20T20:11:46.894Z,14.23
2023-01-20T20:14:17.429Z,16.05
2023-01-20T20:16:45.128Z,10.57
2023-01-20T20:19:15.956Z,9.98
2023-01-20T20:21:44.062Z,13.60
2023-01-20T20:29:08.189Z,13.90
2023-01-20T20:31:37.575Z,15.27
2023-01-20T20:34:07.101Z,18.98
2023-01-20T20:36:36.753Z,15.45
2023-01-20T20:39:05.044Z,20.13
2023-01-20T20:44:03.410Z,14.70
2023-01-20T20:46:31.780Z,15.15
2023-01-20T20:49:00.986Z,20.77
2023-01-20T20:51:31.706Z,16.63
2023-01-20T20:54:01.292Z,15.70
2023-01-20T20:56:33.037Z,19.58
2023-01-20T20:59:03.239Z,18.52
2023-01-20T21:01:33.062Z,17.08
2023-01-20T21:04:02.022Z,13.82
2023-01-20T21:06:30.313Z,18.73
2023-01-20T21:09:01.268Z,17.50
2023-01-20T21:11:29.375Z,15.43
2023-01-20T21:16:26.056Z,24.83
2023-01-20T21:18:56.320Z,26.30
2023-01-20T21:21:24.508Z,19.13
2023-01-20T21:23:56.739Z,19.42
2023-01-20T21:26:29.613Z,15.98
2023-01-20T21:29:00.215Z,22.80
2023-01-20T21:31:27.818Z,15.77
2023-01-20T21:34:00.334Z,16.08
2023-01-20T21:36:29.440Z,19.00
2023-01-20T21:38:58.841Z,17.70
2023-01-20T21:41:26.258Z,16.90
2023-01-20T21:44:12.181Z,22.75
2023-01-20T21:46:40.659Z,19.83
2023-01-20T21:49:27.403Z,17.80
2023-01-20T21:52:14.963Z,21.77
2023-01-20T21:54:44.838Z,14.55
2023-01-20T21:57:12.677Z,29.15
2023-01-20T21:59:40.291Z,25.17
2023-01-20T22:02:08.475Z,21.67
2023-01-20T22:04:35.933Z,22.38
2023-01-20T22:07:03.317Z,20.05
2023-01-20T22:09:31.227Z,21.02
2023-01-20T22:11:59.684Z,15.13
2023-01-20T22:14:27.203Z,21.88
2023-01-20T22:16:54.689Z,25.33
2023-01-20T22:19:22.128Z,25.35
2023-01-20T22:21:49.632Z,21.42
2023-01-20T22:24:17.496Z,31.98
2023-01-20T22:26:51.407Z,27.50
2023-01-20T22:29:19.244Z,21.05
2023-01-20T22:31:47.537Z,24.30
2023-01-20T22:34:15.001Z,18.75
2023-01-20T22:36:42.587Z,20.17
2023-01-20T22:39:11.790Z,21.33
2023-01-20T22:41:39.281Z,19.80
2023-01-20T22:44:07.313Z,23.17
2023-01-20T22:49:02.265Z,25.10
2023-01-20T22:51:30.776Z,22.17
2023-01-20T22:54:01.839Z,19.45
2023-01-20T22:56:31.687Z,24.95
2023-01-20T22:58:59.974Z,23.42
2023-01-20T23:01:30.367Z,20.45
2023-01-20T23:04:00.733Z,19.25
2023-01-20T23:06:30.623Z,20.60
2023-01-20T23:08:58.988Z,20.77
2023-01-20T23:11:26.480Z,19.25
2023-01-20T23:13:54.101Z,16.60
2023-01-20T23:16:22.779Z,17.13
2023-01-20T23:18:51.984Z,13.68
2023-01-20T23:21:21.180Z,18.65
2023-01-20T23:23:54.762Z,23.75
2023-01-20T23:26:25.265Z,15.95
2023-01-20T23:28:53.968Z,18.85
2023-01-20T23:31:23.636Z,20.98
2023-01-20T23:33:52.962Z,24.27
2023-01-20T23:36:22.825Z,25.35
2023-01-20T23:38:52.398Z,19.35
2023-01-20T23:41:20.437Z,17.23
2023-01-20T23:46:15.181Z,24.27
2023-01-20T23:48:45.739Z,19.85
2023-01-20T23:51:13.395Z,21.33
2023-01-20T23:53:41.252Z,26.20
2023-01-20T23:56:17.267Z,21.88
2023-01-20T23:58:45.727Z,18.77
